createdAt,value
2022-08-03T00:00:24.274Z,99193.00
2022-08-03T00:02:51.136Z,99186.00
2022-08-03T00:05:17.834Z,99187.81
2022-08-03T00:07:44.408Z,99191.22
2022-08-03T00:10:12.723Z,99182.50
2022-08-03T00:12:39.749Z,99181.66
2022-08-03T00:15:10.388Z,99179.94
2022-08-03T00:17:53.080Z,99181.69
2022-08-03T00:20:23.822Z,99189.50
2022-08-03T00:22:50.861Z,99187.81
2022-08-03T00:25:17.666Z,99186.91
2022-08-03T00:27:44.278Z,99180.88
2022-08-03T00:30:11.479Z,99186.06
2022-08-03T00:32:38.779Z,99182.63
2022-08-03T00:35:18.246Z,99180.97
2022-08-03T00:37:58.823Z,99187.91
2022-08-03T00:40:25.426Z,99183.56
2022-08-03T00:42:59.783Z,99178.38
2022-08-03T00:45:35.164Z,99183.59
2022-08-03T00:48:02.785Z,99176.66
2022-08-03T00:50:32.508Z,99179.25
2022-08-03T00:52:59.983Z,99187.94
2022-08-03T00:55:26.948Z,99182.75
2022-08-03T00:57:54.210Z,99187.16
2022-08-03T01:00:23.538Z,99183.72
2022-08-03T01:02:50.511Z,99182.03
2022-08-03T01:05:18.321Z,99181.19
2022-08-03T01:08:03.799Z,99175.09
2022-08-03T01:10:48.959Z,99181.19
2022-08-03T01:14:04.644Z,99176.06
2022-08-03T01:16:08.363Z,99184.75
2022-08-03T01:18:55.730Z,99179.56
2022-08-03T01:21:40.547Z,99180.47
2022-08-03T01:24:33.113Z,99183.06
2022-08-03T01:27:43.186Z,99176.97
2022-08-03T01:30:12.558Z,99173.63
2022-08-03T01:33:01.909Z,99177.03
2022-08-03T01:35:40.568Z,99171.03
2022-08-03T01:38:12.662Z,99176.19
2022-08-03T01:40:41.619Z,99173.56
2022-08-03T01:43:12.712Z,99174.34
2022-08-03T01:45:41.317Z,99168.34
2022-08-03T01:48:09.518Z,99170.91
2022-08-03T01:50:36.979Z,99171.81
2022-08-03T01:53:04.360Z,99178.72
2022-08-03T01:55:33.291Z,99176.16
2022-08-03T01:58:05.268Z,99175.31
2022-08-03T02:00:35.302Z,99186.56
2022-08-03T02:03:04.825Z,99180.47
2022-08-03T02:05:32.182Z,99180.47
2022-08-03T02:08:00.626Z,99176.16
2022-08-03T02:10:35.267Z,99170.84
2022-08-03T02:13:05.157Z,99176.97
2022-08-03T02:15:33.906Z,99173.50
2022-08-03T02:18:03.660Z,99181.34
2022-08-03T02:20:33.204Z,99183.13
2022-08-03T02:22:59.902Z,99184.03
2022-08-03T02:25:26.667Z,99189.25
2022-08-03T02:27:58.445Z,99184.09
2022-08-03T02:30:36.994Z,99183.19
2022-08-03T02:33:05.671Z,99180.69
2022-08-03T02:35:34.163Z,99182.41
2022-08-03T02:38:04.272Z,99180.69
2022-08-03T02:40:33.203Z,99182.41
2022-08-03T02:43:03.810Z,99179.88
2022-08-03T02:45:36.027Z,99186.88
2022-08-03T02:48:04.922Z,99183.44
2022-08-03T02:50:33.478Z,99188.59
2022-08-03T02:53:01.639Z,99185.13
2022-08-03T02:55:29.047Z,99187.78
2022-08-03T02:57:57.062Z,99197.22
2022-08-03T03:00:30.988Z,99192.00
2022-08-03T03:03:00.346Z,99179.00
2022-08-03T03:05:56.194Z,99187.72
2022-08-03T03:08:17.777Z,99192.94
2022-08-03T03:10:47.161Z,99192.94
2022-08-03T03:13:16.028Z,99193.84
2022-08-03T03:15:44.280Z,99197.28
2022-08-03T03:18:11.331Z,99196.44
2022-08-03T03:20:40.849Z,99187.78
2022-08-03T03:23:09.249Z,99200.78
2022-08-03T03:25:36.688Z,99193.84
2022-08-03T03:28:06.220Z,99198.19
2022-08-03T03:30:33.533Z,99195.69
2022-08-03T03:33:00.653Z,99201.69
2022-08-03T03:35:27.951Z,99200.78
2022-08-03T03:37:55.132Z,99202.59
2022-08-03T03:40:22.440Z,99211.25
2022-08-03T03:42:50.191Z,99218.09
2022-08-03T03:45:17.857Z,99222.38
2022-08-03T03:47:44.667Z,99220.66
2022-08-03T03:50:11.743Z,99226.72
2022-08-03T03:52:38.659Z,99224.97
2022-08-03T03:55:05.759Z,99221.53
2022-08-03T03:57:33.974Z,99221.50
2022-08-03T04:00:00.791Z,99229.25
2022-08-03T04:02:27.665Z,99229.19
2022-08-03T04:05:13.145Z,99230.94
2022-08-03T04:08:29.395Z,99224.81
2022-08-03T04:11:17.004Z,99229.22
2022-08-03T04:13:50.729Z,99224.00
2022-08-03T04:16:21.147Z,99218.81
2022-08-03T04:18:54.044Z,99226.59
2022-08-03T04:21:23.530Z,99223.09
2022-08-03T04:23:52.994Z,99217.84
2022-08-03T04:26:22.892Z,99219.50
2022-08-03T04:28:51.567Z,99220.25
2022-08-03T04:31:22.121Z,99222.81
2022-08-03T04:33:50.074Z,99225.25
2022-08-03T04:36:25.954Z,99242.56
2022-08-03T04:38:55.595Z,99243.41
2022-08-03T04:41:24.943Z,99243.31
2022-08-03T04:43:54.845Z,99238.09
2022-08-03T04:46:24.159Z,99243.25
2022-08-03T04:48:51.376Z,99247.53
2022-08-03T04:51:18.513Z,99244.88
2022-08-03T04:53:45.146Z,99239.66
2022-08-03T04:56:11.938Z,99246.50
2022-08-03T04:58:38.535Z,99243.03
2022-08-03T05:01:05.230Z,99247.34
2022-08-03T05:03:32.230Z,99241.28
2022-08-03T05:06:01.828Z,99243.03
2022-08-03T05:08:36.965Z,99241.31
2022-08-03T05:11:13.166Z,99238.69
2022-08-03T05:13:39.809Z,99246.50
2022-08-03T05:16:06.377Z,99248.25
2022-08-03T05:18:33.042Z,99243.88
2022-08-03T05:20:59.635Z,99248.13
2022-08-03T05:23:26.190Z,99258.47
2022-08-03T05:25:52.793Z,99260.09
2022-08-03T05:28:19.463Z,99265.25
2022-08-03T05:30:46.371Z,99259.09
2022-08-03T05:33:12.977Z,99261.59
2022-08-03T05:35:55.651Z,99265.03
2022-08-03T05:38:28.540Z,99268.50
2022-08-03T05:41:22.365Z,99265.91
2022-08-03T05:43:44.972Z,99257.19
2022-08-03T05:46:13.139Z,99257.97
2022-08-03T05:48:40.522Z,99257.84
2022-08-03T05:51:11.096Z,99257.72
2022-08-03T05:53:38.465Z,99261.88
2022-08-03T05:56:13.651Z,99265.16
2022-08-03T05:58:46.428Z,99260.72
2022-08-03T06:01:13.595Z,99260.66
2022-08-03T06:03:40.438Z,99260.50
2022-08-03T06:06:07.122Z,99267.41
2022-08-03T06:08:34.534Z,99270.72
2022-08-03T06:11:01.174Z,99262.78
2022-08-03T06:13:27.783Z,99267.91
2022-08-03T06:15:54.355Z,99274.59
2022-08-03T06:18:21.067Z,99269.16
2022-08-03T06:20:49.385Z,99274.19
2022-08-03T06:23:18.612Z,99283.47
2022-08-03T06:25:45.976Z,99279.81
2022-08-03T06:28:35.370Z,99278.81
2022-08-03T06:31:01.121Z,99277.81
2022-08-03T06:34:31.185Z,99277.66
2022-08-03T06:36:15.157Z,99277.53
2022-08-03T06:38:41.809Z,99279.06
2022-08-03T06:41:08.499Z,99282.38
2022-08-03T06:43:37.766Z,99284.75
2022-08-03T06:46:05.745Z,99287.94
2022-08-03T06:48:32.657Z,99290.34
2022-08-03T06:50:59.380Z,99293.72
2022-08-03T06:53:26.367Z,99287.63
2022-08-03T06:55:55.056Z,99295.38
2022-08-03T06:58:22.481Z,99291.88
2022-08-03T07:00:49.269Z,99293.47
2022-08-03T07:03:16.683Z,99293.38
2022-08-03T07:05:43.898Z,99295.00
2022-08-03T07:08:10.568Z,99298.31
2022-08-03T07:10:37.307Z,99292.91
2022-08-03T07:13:04.685Z,99293.50
2022-08-03T07:15:53.874Z,99290.63
2022-08-03T07:18:18.215Z,99297.41
2022-08-03T07:20:55.939Z,99289.41
2022-08-03T07:23:22.491Z,99294.25
2022-08-03T07:25:49.113Z,99295.72
2022-08-03T07:28:15.695Z,99300.56
2022-08-03T07:30:42.273Z,99295.06
2022-08-03T07:33:08.848Z,99296.59
2022-08-03T07:35:35.513Z,99286.97
2022-08-03T07:38:02.140Z,99285.13
2022-08-03T07:40:31.518Z,99297.19
2022-08-03T07:42:59.398Z,99300.47
2022-08-03T07:45:26.851Z,99304.50
2022-08-03T07:47:54.202Z,99307.75
2022-08-03T07:50:21.650Z,99306.63
2022-08-03T07:52:49.290Z,99300.31
2022-08-03T07:55:19.266Z,99300.19
2022-08-03T07:57:46.030Z,99301.72
2022-08-03T08:00:17.020Z,99300.72
2022-08-03T08:02:44.666Z,99301.41
2022-08-03T08:05:11.398Z,99302.13
2022-08-03T08:07:39.232Z,99298.53
2022-08-03T08:10:08.023Z,99295.81
2022-08-03T08:12:34.649Z,99292.97
2022-08-03T08:15:01.277Z,99297.97
2022-08-03T08:17:27.892Z,99294.22
2022-08-03T08:19:54.700Z,99288.75
2022-08-03T08:22:29.691Z,99300.69
2022-08-03T08:24:58.373Z,99299.56
2022-08-03T08:27:25.480Z,99302.63
2022-08-03T08:29:54.591Z,99300.47
2022-08-03T08:32:23.157Z,99294.03
2022-08-03T08:34:49.757Z,99292.13
2022-08-03T08:37:16.467Z,99295.28
2022-08-03T08:39:43.094Z,99301.97
2022-08-03T08:42:10.328Z,99305.28
2022-08-03T08:44:37.056Z,99305.00
2022-08-03T08:47:04.522Z,99304.03
2022-08-03T08:49:33.053Z,99298.78
2022-08-03T08:52:01.614Z,99294.31
2022-08-03T08:54:30.960Z,99309.88
2022-08-03T08:57:01.980Z,99312.22
2022-08-03T08:59:47.995Z,99319.84
2022-08-03T09:02:16.126Z,99313.75
2022-08-03T09:04:42.961Z,99317.97
2022-08-03T09:07:19.984Z,99316.16
2022-08-03T09:10:11.057Z,99321.41
2022-08-03T09:12:45.408Z,99317.72
2022-08-03T09:15:28.656Z,99322.03
2022-08-03T09:17:57.818Z,99317.59
2022-08-03T09:20:25.971Z,99322.69
2022-08-03T09:23:44.778Z,99309.25
2022-08-03T09:26:01.654Z,99305.41
2022-08-03T09:29:01.603Z,99311.03
2022-08-03T09:31:34.637Z,99319.41
2022-08-03T09:34:12.864Z,99306.09
2022-08-03T09:36:41.079Z,99310.19
2022-08-03T09:39:13.612Z,99316.88
2022-08-03T09:41:42.256Z,99307.81
2022-08-03T09:44:08.988Z,99305.81
2022-08-03T09:46:53.222Z,99309.22
2022-08-03T09:49:19.887Z,99297.66
2022-08-03T09:52:31.585Z,99301.84
2022-08-03T09:54:34.314Z,99299.38
2022-08-03T09:57:01.194Z,99298.88
2022-08-03T09:59:30.867Z,99308.91
2022-08-03T10:01:59.987Z,99305.81
2022-08-03T10:04:26.758Z,99302.91
2022-08-03T10:07:10.818Z,99296.28
2022-08-03T10:09:38.256Z,99292.41
2022-08-03T10:12:12.574Z,99300.69
2022-08-03T10:14:41.779Z,99297.97
2022-08-03T10:17:09.942Z,99294.59
2022-08-03T10:19:36.870Z,99293.06
2022-08-03T10:22:15.763Z,99301.09
2022-08-03T10:24:52.469Z,99300.28
2022-08-03T10:27:20.907Z,99307.09
2022-08-03T10:29:53.947Z,99298.91
2022-08-03T10:32:31.659Z,99298.47
2022-08-03T10:35:19.620Z,99293.69
2022-08-03T10:38:14.630Z,99294.47
2022-08-03T10:40:50.464Z,99288.41
2022-08-03T10:43:28.555Z,99293.84
2022-08-03T10:45:56.838Z,99297.56
2022-08-03T10:48:25.210Z,99297.00
2022-08-03T10:50:52.506Z,99302.41
2022-08-03T10:53:38.519Z,99310.66
2022-08-03T10:56:35.798Z,99321.91
2022-08-03T10:59:11.475Z,99303.66
2022-08-03T11:01:58.904Z,99305.94
2022-08-03T11:04:29.380Z,99301.13
2022-08-03T11:07:24.083Z,99317.16
2022-08-03T11:09:56.285Z,99323.69
2022-08-03T11:12:30.609Z,99319.50
2022-08-03T11:15:03.971Z,99334.63
2022-08-03T11:17:31.747Z,99340.41
2022-08-03T11:19:58.769Z,99341.13
2022-08-03T11:22:25.757Z,99322.94
2022-08-03T11:24:54.361Z,99312.50
2022-08-03T11:27:23.305Z,99308.88
2022-08-03T11:30:16.171Z,99291.25
2022-08-03T11:32:48.454Z,99309.34
2022-08-03T11:35:23.530Z,99322.09
2022-08-03T11:38:05.056Z,99320.09
2022-08-03T11:40:38.769Z,99316.25
2022-08-03T11:43:07.306Z,99319.31
2022-08-03T11:45:34.936Z,99313.44
2022-08-03T11:48:15.886Z,99305.81
2022-08-03T11:50:45.320Z,99303.34
2022-08-03T11:53:17.305Z,99309.44
2022-08-03T11:55:48.788Z,99323.25
2022-08-03T11:59:01.306Z,99320.38
2022-08-03T12:01:08.203Z,99319.34
2022-08-03T12:03:35.629Z,99325.41
2022-08-03T12:06:03.083Z,99315.69
2022-08-03T12:08:33.478Z,99302.88
2022-08-03T12:11:02.301Z,99296.78
2022-08-03T12:14:44.046Z,99291.78
2022-08-03T12:16:25.531Z,99296.34
2022-08-03T12:19:10.070Z,99292.41
2022-08-03T12:21:57.005Z,99290.13
2022-08-03T12:24:24.038Z,99293.88
2022-08-03T12:26:58.323Z,99286.47
2022-08-03T12:29:26.313Z,99299.69
2022-08-03T12:31:53.014Z,99299.91
2022-08-03T12:34:19.722Z,99307.13
2022-08-03T12:36:56.152Z,99297.66
2022-08-03T12:39:27.859Z,99290.69
2022-08-03T12:41:55.878Z,99292.28
2022-08-03T12:44:36.072Z,99297.19
2022-08-03T12:47:04.273Z,99290.84
2022-08-03T12:49:49.371Z,99294.78
2022-08-03T12:52:17.518Z,99303.94
2022-08-03T12:54:57.599Z,99294.84
2022-08-03T12:57:24.971Z,99302.03
2022-08-03T12:59:55.832Z,99303.84
2022-08-03T13:02:27.700Z,99304.66
2022-08-03T13:04:54.979Z,99303.91
2022-08-03T13:07:22.779Z,99298.78
2022-08-03T13:09:50.833Z,99301.63
2022-08-03T13:12:18.352Z,99309.66
2022-08-03T13:14:47.670Z,99309.97
2022-08-03T13:17:16.823Z,99300.69
2022-08-03T13:19:43.990Z,99302.88
2022-08-03T13:22:12.992Z,99296.72
2022-08-03T13:24:39.841Z,99299.41
2022-08-03T13:28:02.564Z,99295.16
2022-08-03T13:29:54.810Z,99307.41
2022-08-03T13:32:23.012Z,99296.22
2022-08-03T13:34:49.853Z,99310.31
2022-08-03T13:37:16.531Z,99311.41
2022-08-03T13:39:57.665Z,99317.72
2022-08-03T13:42:31.823Z,99322.19
2022-08-03T13:45:00.076Z,99320.75
2022-08-03T13:47:27.241Z,99331.34
2022-08-03T13:50:00.802Z,99335.03
2022-08-03T13:52:36.508Z,99353.50
2022-08-03T13:55:05.668Z,99376.31
2022-08-03T13:58:04.434Z,99384.44
2022-08-03T14:00:27.775Z,99365.81
2022-08-03T14:03:02.706Z,99353.53
2022-08-03T14:05:32.059Z,99344.63
2022-08-03T14:08:04.185Z,99334.81
2022-08-03T14:10:35.643Z,99334.41
2022-08-03T14:13:02.573Z,99336.41
2022-08-03T14:15:29.182Z,99329.78
2022-08-03T14:17:58.572Z,99324.69
2022-08-03T14:20:37.876Z,99317.09
2022-08-03T14:23:12.897Z,99311.97
2022-08-03T14:25:50.515Z,99313.78
2022-08-03T14:28:23.221Z,99321.75
2022-08-03T14:30:53.894Z,99327.88
2022-08-03T14:33:21.134Z,99333.91
2022-08-03T14:35:47.881Z,99337.38
2022-08-03T14:38:14.847Z,99334.72
2022-08-03T14:40:41.538Z,99344.28
2022-08-03T14:43:08.141Z,99349.53
2022-08-03T14:45:34.767Z,99346.84
2022-08-03T14:50:29.164Z,99343.25
2022-08-03T14:50:51.610Z,99340.53
2022-08-03T14:53:19.456Z,99348.13
2022-08-03T14:55:49.914Z,99350.41
2022-08-03T14:58:21.069Z,99344.94
2022-08-03T15:00:48.253Z,99350.81
2022-08-03T15:03:16.710Z,99369.72
2022-08-03T15:05:44.317Z,99383.38
2022-08-03T15:08:10.926Z,99385.06
2022-08-03T15:10:43.820Z,99394.81
2022-08-03T15:13:13.172Z,99410.75
2022-08-03T15:15:40.348Z,99401.59
2022-08-03T15:18:07.018Z,99402.06
2022-08-03T15:20:43.901Z,99387.78
2022-08-03T15:23:12.051Z,99383.84
2022-08-03T15:26:28.198Z,99379.91
2022-08-03T15:28:25.272Z,99376.78
2022-08-03T15:30:53.047Z,99385.81
2022-08-03T15:33:20.165Z,99388.72
2022-08-03T15:35:47.683Z,99400.19
2022-08-03T15:38:14.461Z,99385.59
2022-08-03T15:40:41.384Z,99389.25
2022-08-03T15:43:08.306Z,99385.06
2022-08-03T15:45:36.441Z,99387.81
2022-08-03T15:48:07.136Z,99382.69
2022-08-03T15:50:33.837Z,99397.28
2022-08-03T15:53:00.439Z,99394.25
2022-08-03T15:55:27.295Z,99381.66
2022-08-03T15:59:10.431Z,99394.34
2022-08-03T16:00:41.900Z,99388.91
2022-08-03T16:03:08.593Z,99382.59
2022-08-03T16:05:35.801Z,99383.16
2022-08-03T16:08:03.487Z,99375.97
2022-08-03T16:10:32.547Z,99376.78
2022-08-03T16:13:00.319Z,99374.97
2022-08-03T16:15:27.311Z,99387.16
2022-08-03T16:17:53.999Z,99394.09
2022-08-03T16:20:30.931Z,99393.34
2022-08-03T16:23:10.361Z,99390.78
2022-08-03T16:25:39.316Z,99390.09
2022-08-03T16:28:12.731Z,99390.38
2022-08-03T16:30:42.614Z,99398.50
2022-08-03T16:33:09.659Z,99395.28
2022-08-03T16:35:36.427Z,99394.69
2022-08-03T16:38:07.837Z,99380.13
2022-08-03T16:40:36.654Z,99378.78
2022-08-03T16:43:17.869Z,99398.19
2022-08-03T16:45:46.619Z,99408.94
2022-08-03T16:48:15.211Z,99408.34
2022-08-03T16:50:41.920Z,99413.06
2022-08-03T16:53:09.907Z,99417.56
2022-08-03T16:55:53.922Z,99423.91
2022-08-03T16:58:34.664Z,99433.78
2022-08-03T17:01:22.283Z,99448.78
2022-08-03T17:04:01.971Z,99447.28
2022-08-03T17:06:36.996Z,99459.59
2022-08-03T17:09:09.038Z,99464.06
2022-08-03T17:11:38.051Z,99467.66
2022-08-03T17:14:09.442Z,99471.19
2022-08-03T17:16:38.491Z,99473.94
2022-08-03T17:19:06.918Z,99463.59
2022-08-03T17:21:37.613Z,99463.66
2022-08-03T17:24:20.438Z,99467.25
2022-08-03T17:26:49.914Z,99469.06
2022-08-03T17:29:24.986Z,99462.97
2022-08-03T17:31:53.394Z,99470.13
2022-08-03T17:34:20.946Z,99470.16
2022-08-03T17:37:27.208Z,99466.75
2022-08-03T17:39:58.354Z,99466.88
2022-08-03T17:42:30.892Z,99460.91
2022-08-03T17:45:01.993Z,99455.81
2022-08-03T17:47:41.355Z,99449.84
2022-08-03T17:50:23.994Z,99457.78
2022-08-03T17:53:15.608Z,99463.88
2022-08-03T17:56:04.759Z,99467.47
2022-08-03T17:59:09.364Z,99464.06
2022-08-03T18:02:26.581Z,99468.50
2022-08-03T18:05:00.686Z,99472.94
2022-08-03T18:07:41.342Z,99478.16
2022-08-03T18:10:11.608Z,99467.00
2022-08-03T18:12:53.329Z,99478.19
2022-08-03T18:15:43.607Z,99486.00
2022-08-03T18:18:14.020Z,99481.69
2022-08-03T18:20:42.665Z,99476.47
2022-08-03T18:23:25.168Z,99474.78
2022-08-03T18:26:02.504Z,99480.06
2022-08-03T18:28:32.347Z,99476.66
2022-08-03T18:31:04.241Z,99469.72
2022-08-03T18:34:16.386Z,99468.00
2022-08-03T18:36:29.991Z,99465.47
2022-08-03T18:38:59.607Z,99460.31
2022-08-03T18:41:32.385Z,99458.63
2022-08-03T18:44:07.982Z,99454.28
2022-08-03T18:46:48.232Z,99457.00
2022-08-03T18:49:20.649Z,99451.84
2022-08-03T18:51:54.931Z,99445.00
2022-08-03T18:55:02.335Z,99452.84
2022-08-03T19:00:54.354Z,99448.78
2022-08-03T19:03:24.225Z,99458.44
2022-08-03T19:06:09.457Z,99461.94
2022-08-03T19:08:54.284Z,99460.31
2022-08-03T19:12:13.242Z,99470.72
2022-08-03T19:14:44.064Z,99475.16
2022-08-03T19:17:12.497Z,99470.03
2022-08-03T19:19:44.891Z,99470.13
2022-08-03T19:22:16.165Z,99478.81
2022-08-03T19:24:46.059Z,99470.19
2022-08-03T19:27:13.613Z,99466.75
2022-08-03T19:29:59.511Z,99472.84
2022-08-03T19:32:30.043Z,99469.47
2022-08-03T19:34:59.566Z,99461.72
2022-08-03T19:37:33.186Z,99453.06
2022-08-03T19:40:10.311Z,99452.28
2022-08-03T19:42:40.033Z,99446.28
2022-08-03T19:45:11.360Z,99455.03
2022-08-03T19:48:09.695Z,99462.88
2022-08-03T19:50:44.676Z,99459.59
2022-08-03T19:53:13.396Z,99458.75
2022-08-03T19:55:47.478Z,99463.16
2022-08-03T19:58:24.495Z,99461.50
2022-08-03T20:00:55.785Z,99456.38
2022-08-03T20:03:23.493Z,99458.19
2022-08-03T20:05:52.297Z,99454.72
2022-08-03T20:08:21.292Z,99461.72
2022-08-03T20:10:49.387Z,99458.31
2022-08-03T20:13:19.454Z,99467.03
2022-08-03T20:15:46.496Z,99473.13
2022-08-03T20:18:16.892Z,99476.63
2022-08-03T20:20:48.209Z,99473.13
2022-08-03T20:23:19.428Z,99471.44
2022-08-03T20:25:58.601Z,99472.28
2022-08-03T20:28:50.125Z,99478.41
2022-08-03T20:31:18.062Z,99477.56
2022-08-03T20:33:46.256Z,99473.28
2022-08-03T20:39:07.705Z,99483.69
2022-08-03T20:41:35.717Z,99484.59
2022-08-03T20:44:04.429Z,99476.78
2022-08-03T20:46:46.492Z,99482.00
2022-08-03T20:49:23.040Z,99477.69
2022-08-03T20:51:53.111Z,99482.84
2022-08-03T20:54:29.797Z,99473.28
2022-08-03T20:57:03.773Z,99478.59
2022-08-03T20:59:46.954Z,99477.69
2022-08-03T21:02:19.865Z,99473.38
2022-08-03T21:04:57.688Z,99469.13
2022-08-03T21:08:04.096Z,99466.53
2022-08-03T21:13:00.963Z,99448.63
2022-08-03T21:13:08.183Z,99461.38
2022-08-03T21:13:13.699Z,99481.97
2022-08-03T21:13:17.524Z,99462.34
2022-08-03T21:16:02.981Z,99469.31
2022-08-03T21:18:42.469Z,99461.59
2022-08-03T21:21:10.678Z,99461.66
2022-08-03T21:23:48.896Z,99464.25
2022-08-03T21:26:18.545Z,99470.41
2022-08-03T21:28:47.046Z,99474.72
2022-08-03T21:31:24.884Z,99473.88
2022-08-03T21:33:57.685Z,99477.38
2022-08-03T21:36:28.127Z,99476.53
2022-08-03T21:38:57.433Z,99483.47
2022-08-03T21:41:29.520Z,99482.59
2022-08-03T21:43:56.319Z,99480.88
2022-08-03T21:46:23.663Z,99484.28
2022-08-03T21:50:04.347Z,99484.28
2022-08-03T21:51:50.463Z,99479.19
2022-08-03T21:54:20.107Z,99475.69
2022-08-03T21:56:48.110Z,99479.97
2022-08-03T21:59:19.716Z,99482.59
2022-08-03T22:01:49.355Z,99479.09
2022-08-03T22:04:42.665Z,99489.47
2022-08-03T22:07:08.504Z,99481.66
2022-08-03T22:09:36.369Z,99481.66
2022-08-03T22:12:03.889Z,99475.63
2022-08-03T22:14:32.866Z,99469.56
2022-08-03T22:17:03.336Z,99478.22
2022-08-03T22:19:33.121Z,99479.09
2022-08-03T22:22:00.223Z,99476.56
2022-08-03T22:24:32.015Z,99475.69
2022-08-03T22:27:21.397Z,99476.59
2022-08-03T22:29:50.967Z,99470.59
2022-08-03T22:32:17.753Z,99468.06
2022-08-03T22:34:46.820Z,99466.38
2022-08-03T22:37:19.858Z,99466.44
2022-08-03T22:39:49.816Z,99465.63
2022-08-03T22:42:20.399Z,99463.09
2022-08-03T22:44:50.086Z,99464.81
2022-08-03T22:47:22.741Z,99451.81
2022-08-03T22:50:31.772Z,99460.50
2022-08-03T22:52:41.134Z,99463.19
2022-08-03T22:55:11.131Z,99458.84
2022-08-03T22:57:45.748Z,99459.75
2022-08-03T23:00:22.471Z,99458.84
2022-08-03T23:02:49.518Z,99456.25
2022-08-03T23:06:02.592Z,99461.44
2022-08-03T23:08:25.725Z,99461.44
2022-08-03T23:10:53.854Z,99464.03
2022-08-03T23:13:24.564Z,99461.44
2022-08-03T23:15:56.478Z,99459.69
2022-08-03T23:18:24.380Z,99466.56
2022-08-03T23:20:57.485Z,99466.53
2022-08-03T23:23:24.472Z,99467.34
2022-08-03T23:25:51.928Z,99463.03
2022-08-03T23:28:18.747Z,99462.09
2022-08-03T23:30:45.809Z,99471.59
2022-08-03T23:33:15.974Z,99461.19
2022-08-03T23:36:28.660Z,99465.47
2022-08-03T23:38:47.388Z,99470.69
2022-08-03T23:41:17.579Z,99468.94
2022-08-03T23:43:52.001Z,99468.94
2022-08-03T23:46:22.267Z,99469.78
2022-08-03T23:48:49.473Z,99480.13
2022-08-03T23:51:57.049Z,99481.84
2022-08-03T23:54:46.854Z,99487.84
2022-08-03T23:57:37.345Z,99487.84
